Time;durP1;ratioP1;P1;durP2;ratioP2;P2;SDS_P1;SDS_P2;PMS_P1;PMS_P2;Temp;Humidity;BMP_temperature;BMP_pressure;BME280_temperature;BME280_humidity;BME280_pressure;Samples;Min_cycle;Max_cycle;Signal;HPM_P1;HPM_P2
2022/10/23 00:01:13;;;;;;;8.25;5.13;;;;;;;13.30;100.00;101159.00;5083380;28;20241;-52
2022/10/23 00:03:40;;;;;;;7.47;4.93;;;;;;;13.26;100.00;101158.13;5084302;28;20253;-51
2022/10/23 00:06:07;;;;;;;5.65;4.80;;;;;;;13.26;100.00;101160.78;5084730;28;20230;-54
2022/10/23 00:08:33;;;;;;;6.78;4.55;;;;;;;13.23;100.00;101163.41;5085012;28;20332;-51
2022/10/23 00:11:00;;;;;;;6.60;4.90;;;;;;;13.23;100.00;101162.53;5083616;28;20234;-54
2022/10/23 00:13:26;;;;;;;5.40;4.90;;;;;;;13.19;100.00;101161.66;5083620;28;20245;-51
2022/10/23 00:15:53;;;;;;;5.45;5.05;;;;;;;13.14;100.00;101163.47;5081174;28;20238;-53
2022/10/23 00:18:20;;;;;;;8.50;4.78;;;;;;;13.20;100.00;101168.72;5083775;28;20241;-52
2022/10/23 00:20:47;;;;;;;6.15;4.68;;;;;;;13.22;100.00;101182.75;5084494;28;20238;-52
2022/10/23 00:23:13;;;;;;;6.75;5.13;;;;;;;13.24;100.00;101181.03;5084886;28;20888;-53
2022/10/23 00:25:40;;;;;;;8.00;4.32;;;;;;;13.27;100.00;101181.00;5086647;28;20928;-52
2022/10/23 00:28:06;;;;;;;5.07;4.30;;;;;;;13.22;100.00;101188.00;5080930;28;20261;-53
2022/10/23 00:30:33;;;;;;;5.22;4.22;;;;;;;13.22;100.00;101187.16;5085687;28;20655;-52
2022/10/23 00:32:59;;;;;;;8.25;4.78;;;;;;;13.10;100.00;101188.97;5085059;28;20230;-52
2022/10/23 00:35:27;;;;;;;9.05;4.38;;;;;;;13.11;100.00;101189.84;5082404;28;20233;-52
2022/10/23 00:37:53;;;;;;;12.02;5.28;;;;;;;13.24;100.00;101185.41;5080601;28;20226;-52
2022/10/23 00:40:20;;;;;;;5.57;4.60;;;;;;;13.23;100.00;101189.78;5086500;28;20234;-51
2022/10/23 00:42:46;;;;;;;6.85;5.05;;;;;;;13.17;100.00;101194.22;5081414;28;20242;-52
2022/10/23 00:45:22;;;;;;;4.68;4.22;;;;;;;13.13;100.00;101188.06;5084014;28;20234;-52
2022/10/23 00:47:49;;;;;;;7.18;4.95;;;;;;;13.22;100.00;101188.00;5082001;28;20230;-53
2022/10/23 00:50:16;;;;;;;8.20;5.30;;;;;;;13.26;100.00;101179.22;5082108;28;20231;-53
2022/10/23 00:52:47;;;;;;;7.82;4.80;;;;;;;13.26;100.00;101183.63;5084453;28;20241;-55
2022/10/23 00:55:14;;;;;;;7.18;4.25;;;;;;;13.36;100.00;101185.34;5083104;28;20230;-51
2022/10/23 00:57:42;;;;;;;5.43;3.97;;;;;;;13.33;100.00;101185.34;5082742;28;20235;-52
2022/10/23 01:00:12;;;;;;;8.25;5.70;;;;;;;13.31;100.00;101187.16;5077464;28;20234;-55
2022/10/23 01:02:38;;;;;;;5.45;4.95;;;;;;;13.30;100.00;101188.91;5076870;28;20251;-53
2022/10/23 01:05:07;;;;;;;6.32;3.85;;;;;;;13.30;100.00;101196.81;5083143;28;20227;-52
2022/10/23 01:07:39;;;;;;;5.03;4.25;;;;;;;13.26;100.00;101195.06;5082755;28;20238;-53
2022/10/23 01:10:11;;;;;;;6.45;4.38;;;;;;;13.31;100.00;101185.38;5083648;28;20234;-53
2022/10/23 01:12:41;;;;;;;5.68;4.18;;;;;;;13.31;100.00;101182.75;5082506;28;20245;-57
2022/10/23 01:15:14;;;;;;;5.03;4.43;;;;;;;13.34;100.00;101187.13;5083685;28;20510;-52
2022/10/23 01:17:43;;;;;;;4.85;4.35;;;;;;;13.29;100.00;101184.50;5081390;28;20249;-53
2022/10/23 01:20:19;;;;;;;10.80;4.70;;;;;;;13.31;100.00;101192.41;5082515;28;20226;-53
2022/10/23 01:22:57;;;;;;;7.20;4.72;;;;;;;13.28;100.00;101182.75;5085249;28;20643;-51
2022/10/23 01:25:31;;;;;;;5.85;4.35;;;;;;;13.29;100.00;101189.78;5082931;28;20238;-53
2022/10/23 01:28:01;;;;;;;6.10;4.43;;;;;;;13.30;100.00;101190.66;5086784;28;20238;-52
2022/10/23 01:30:29;;;;;;;6.05;4.13;;;;;;;13.29;100.00;101195.03;5087953;28;20348;-52
2022/10/23 01:32:59;;;;;;;6.80;4.65;;;;;;;13.29;100.00;101197.69;5086282;28;20226;-53
2022/10/23 01:35:28;;;;;;;6.47;4.22;;;;;;;13.26;100.00;101200.34;5084219;28;20241;-52
2022/10/23 01:38:00;;;;;;;7.13;4.57;;;;;;;13.23;100.00;101202.97;5087142;28;20235;-53
2022/10/23 01:40:31;;;;;;;6.78;5.35;;;;;;;13.22;100.00;101201.19;5085734;28;20235;-52
2022/10/23 01:43:03;;;;;;;6.28;5.03;;;;;;;13.22;100.00;101203.84;5085922;28;20234;-51
2022/10/23 01:45:34;;;;;;;6.25;4.82;;;;;;;13.22;100.00;101201.19;5084097;28;20237;-52
2022/10/23 01:48:01;;;;;;;4.90;4.20;;;;;;;13.21;100.00;101202.09;5084688;28;20241;-53
2022/10/23 01:50:29;;;;;;;10.68;4.80;;;;;;;13.20;100.00;101204.72;5082816;28;22809;-52
2022/10/23 01:52:55;;;;;;;5.88;5.03;;;;;;;13.19;100.00;101202.97;5085406;28;20237;-53
2022/10/23 01:55:22;;;;;;;5.50;5.00;;;;;;;13.14;100.00;101195.09;5084981;28;20223;-52
2022/10/23 01:57:49;;;;;;;9.23;5.20;;;;;;;13.07;100.00;101198.63;5082277;28;20319;-53
2022/10/23 02:00:19;;;;;;;5.97;4.75;;;;;;;13.08;100.00;101197.75;5075417;28;20242;-53
2022/10/23 02:02:47;;;;;;;6.10;4.93;;;;;;;13.03;100.00;101195.13;5070140;28;20242;-52
2022/10/23 02:05:17;;;;;;;7.80;4.97;;;;;;;13.03;100.00;101194.25;5083010;28;20236;-52
2022/10/23 02:07:44;;;;;;;8.50;4.40;;;;;;;13.00;100.00;101183.72;5080392;28;20735;-51
2022/10/23 02:10:13;;;;;;;5.57;5.00;;;;;;;12.99;100.00;101192.53;5081365;28;20322;-52
2022/10/23 02:12:47;;;;;;;5.15;4.68;;;;;;;13.04;100.00;101188.09;5080727;28;20234;-52
2022/10/23 02:15:21;;;;;;;7.07;5.10;;;;;;;13.00;100.00;101189.00;5078510;28;20234;-52
2022/10/23 02:18:01;;;;;;;8.00;4.65;;;;;;;13.04;100.00;101190.75;5079836;28;20230;-53
2022/10/23 02:20:32;;;;;;;5.57;4.55;;;;;;;13.04;100.00;101190.75;5081384;28;21849;-54
2022/10/23 02:23:01;;;;;;;7.35;5.53;;;;;;;12.99;100.00;101200.44;5081598;28;20238;-52
2022/10/23 02:25:33;;;;;;;11.15;5.50;;;;;;;12.96;100.00;101192.53;5085028;27;20248;-53
2022/10/23 02:28:03;;;;;;;5.30;4.50;;;;;;;13.03;100.00;101189.00;5079259;28;20231;-52
2022/10/23 02:30:33;;;;;;;5.32;4.82;;;;;;;13.00;100.00;101186.38;5083101;28;20299;-52
2022/10/23 02:33:01;;;;;;;7.82;4.38;;;;;;;13.05;100.00;101184.56;5076966;28;20238;-53
2022/10/23 02:35:29;;;;;;;6.22;4.60;;;;;;;13.04;100.00;101177.56;5085439;28;20333;-53
2022/10/23 02:37:58;;;;;;;4.80;4.30;;;;;;;13.04;100.00;101182.81;5081652;28;20280;-52
2022/10/23 02:40:30;;;;;;;5.35;4.85;;;;;;;13.00;100.00;101183.72;5081576;28;20279;-52
2022/10/23 02:42:58;;;;;;;4.55;4.13;;;;;;;13.00;100.00;101181.97;5074909;28;20234;-53
2022/10/23 02:45:30;;;;;;;6.68;5.13;;;;;;;12.97;100.00;101181.09;5082804;28;20235;-53
2022/10/23 02:48:01;;;;;;;4.25;3.92;;;;;;;12.95;100.00;101177.56;5078360;28;20234;-52
2022/10/23 02:50:33;;;;;;;4.93;4.43;;;;;;;12.92;100.00;101182.84;5079878;28;20615;-52
2022/10/23 02:53:10;;;;;;;4.57;4.18;;;;;;;12.94;100.00;101186.38;5076995;28;20226;-53
2022/10/23 02:55:44;;;;;;;6.75;4.60;;;;;;;12.86;100.00;101182.00;5079962;28;20283;-52
2022/10/23 02:58:17;;;;;;;7.22;4.97;;;;;;;12.86;100.00;101187.28;5079449;28;20750;-52
2022/10/23 03:00:46;;;;;;;6.32;4.22;;;;;;;12.87;100.00;101189.03;5084111;28;20234;-53
2022/10/23 03:03:17;;;;;;;5.63;4.20;;;;;;;12.87;100.00;101186.38;5077399;28;20239;-55
2022/10/23 03:05:44;;;;;;;4.97;4.22;;;;;;;12.92;100.00;101182.84;5083814;28;20230;-52
2022/10/23 03:08:13;;;;;;;8.25;5.13;;;;;;;12.86;100.00;101183.78;5078824;28;20230;-53
2022/10/23 03:10:40;;;;;;;8.23;4.25;;;;;;;12.84;100.00;101175.84;5080517;28;20283;-52
2022/10/23 03:13:07;;;;;;;6.18;4.40;;;;;;;12.88;100.00;101182.91;5078757;28;20235;-52
2022/10/23 03:15:34;;;;;;;5.55;4.18;;;;;;;12.89;100.00;101179.38;5083189;28;20258;-53
2022/10/23 03:18:01;;;;;;;7.03;4.63;;;;;;;12.88;100.00;101185.53;5082957;28;20230;-53
2022/10/23 03:20:29;;;;;;;8.45;4.85;;;;;;;12.88;100.00;101180.25;5080059;28;20226;-53
2022/10/23 03:22:55;;;;;;;6.05;4.95;;;;;;;12.86;100.00;101181.13;5082622;28;20706;-53
2022/10/23 03:25:22;;;;;;;5.70;4.13;;;;;;;12.82;100.00;101182.03;5077580;28;20227;-54
2022/10/23 03:27:49;;;;;;;6.80;4.63;;;;;;;12.77;100.00;101182.03;5081353;28;20649;-52
2022/10/23 03:30:16;;;;;;;5.80;4.72;;;;;;;12.75;100.00;101190.84;5083341;28;20314;-52
2022/10/23 03:32:43;;;;;;;5.55;4.40;;;;;;;12.76;100.00;101182.03;5086954;28;20230;-50
2022/10/23 03:35:10;;;;;;;5.90;4.32;;;;;;;12.76;100.00;101180.28;5075841;28;20291;-53
2022/10/23 03:37:38;;;;;;;5.35;4.55;;;;;;;12.76;100.00;101177.66;5086558;27;20695;-53
2022/10/23 03:40:06;;;;;;;5.68;4.50;;;;;;;12.74;100.00;101178.53;5074109;28;20645;-52
2022/10/23 03:42:32;;;;;;;6.25;4.57;;;;;;;12.71;100.00;101187.34;5063053;28;20713;-53
2022/10/23 03:44:59;;;;;;;4.85;4.30;;;;;;;12.68;100.00;101187.34;5058854;28;20745;-52
2022/10/23 03:47:26;;;;;;;8.73;4.45;;;;;;;12.57;100.00;101195.28;5063591;28;20261;-51
2022/10/23 03:49:53;;;;;;;5.65;5.03;;;;;;;12.55;100.00;101194.38;5062637;28;20239;-52
2022/10/23 03:52:20;;;;;;;5.45;4.85;;;;;;;12.53;100.00;101197.88;5068922;28;20251;-51
2022/10/23 03:54:48;;;;;;;5.80;5.20;;;;;;;12.56;100.00;101192.63;5080191;28;20526;-52
2022/10/23 03:57:14;;;;;;;5.70;5.10;;;;;;;12.53;100.00;101200.53;5079585;28;20231;-53
2022/10/23 03:59:41;;;;;;;6.45;5.70;;;;;;;12.51;100.00;101202.31;5075286;28;20247;-52
2022/10/23 04:02:08;;;;;;;8.13;5.43;;;;;;;12.50;100.00;101195.28;5074801;28;20280;-53
2022/10/23 04:04:35;;;;;;;7.03;5.25;;;;;;;12.44;100.00;101196.16;5079250;28;20235;-52
2022/10/23 04:07:02;;;;;;;6.75;5.07;;;;;;;12.43;100.00;101198.81;5083311;28;20748;-52
2022/10/23 04:09:31;;;;;;;8.20;6.20;;;;;;;12.41;100.00;101190.88;5077551;28;20811;-53
2022/10/23 04:11:59;;;;;;;5.70;4.95;;;;;;;12.40;100.00;101202.31;5080262;28;20222;-53
2022/10/23 04:14:27;;;;;;;4.70;4.22;;;;;;;12.38;100.00;101202.28;5082515;28;20241;-53
2022/10/23 04:16:53;;;;;;;6.43;4.68;;;;;;;12.34;100.00;101192.66;5081635;28;20222;-52
2022/10/23 04:19:20;;;;;;;5.05;4.55;;;;;;;12.35;100.00;101190.88;5078902;28;20317;-52
2022/10/23 04:21:47;;;;;;;6.43;5.18;;;;;;;12.32;100.00;101189.16;5080441;28;20230;-53
2022/10/23 04:24:13;;;;;;;8.45;4.32;;;;;;;12.32;100.00;101185.63;5081453;28;20283;-52
2022/10/23 04:26:40;;;;;;;5.63;5.18;;;;;;;12.29;100.00;101197.06;5083087;28;20288;-54
2022/10/23 04:29:08;;;;;;;5.78;4.55;;;;;;;12.29;100.00;101191.78;5083865;28;20230;-52
2022/10/23 04:31:35;;;;;;;6.68;5.13;;;;;;;12.25;100.00;101182.16;5070238;28;20279;-52
2022/10/23 04:34:02;;;;;;;4.97;4.50;;;;;;;12.23;100.00;101183.88;5064236;28;20231;-52
2022/10/23 04:36:29;;;;;;;5.13;4.63;;;;;;;12.20;100.00;101186.53;5062925;28;20234;-53
2022/10/23 04:38:56;;;;;;;4.97;4.57;;;;;;;12.18;100.00;101177.75;5065558;28;20283;-52
2022/10/23 04:41:22;;;;;;;5.40;4.90;;;;;;;12.14;100.00;101170.72;5061203;28;20425;-54
2022/10/23 04:43:49;;;;;;;5.50;4.35;;;;;;;12.12;100.00;101188.28;5062056;28;20725;-53
2022/10/23 04:46:17;;;;;;;5.60;4.43;;;;;;;12.09;100.00;101180.38;5066095;28;20292;-53
2022/10/23 04:48:44;;;;;;;6.43;5.57;;;;;;;12.08;100.00;101186.53;5073387;28;20274;-51
2022/10/23 04:51:11;;;;;;;5.63;5.13;;;;;;;12.06;100.00;101186.53;5073079;28;20611;-51
2022/10/23 04:53:38;;;;;;;5.75;5.10;;;;;;;12.04;100.00;101180.41;5074162;28;20223;-53
2022/10/23 04:56:08;;;;;;;7.78;4.85;;;;;;;12.03;100.00;101188.28;5066691;28;20230;-53
2022/10/23 04:58:35;;;;;;;7.72;5.75;;;;;;;12.02;100.00;101194.41;5067325;28;20239;-52
2022/10/23 05:01:01;;;;;;;5.97;5.38;;;;;;;11.99;100.00;101189.16;5066361;28;20234;-52
2022/10/23 05:03:29;;;;;;;6.70;5.70;;;;;;;11.93;100.00;101193.56;5065184;28;20235;-51
2022/10/23 05:05:56;;;;;;;9.30;5.85;;;;;;;11.93;100.00;101188.28;5070684;28;20713;-53
2022/10/23 05:08:24;;;;;;;7.53;5.40;;;;;;;11.90;100.00;101180.38;5062318;28;20948;-52
2022/10/23 05:10:51;;;;;;;7.18;5.70;;;;;;;11.89;100.00;101183.00;5078613;28;20635;-54
2022/10/23 05:13:18;;;;;;;5.82;5.32;;;;;;;11.87;100.00;101183.00;5085162;28;20257;-51
2022/10/23 05:15:46;;;;;;;6.10;5.50;;;;;;;11.86;100.00;101181.25;5085119;28;20302;-51
2022/10/23 05:18:16;;;;;;;6.95;5.78;;;;;;;11.88;100.00;101174.22;5083746;28;20802;-53
2022/10/23 05:20:45;;;;;;;7.15;6.47;;;;;;;11.84;100.00;101180.38;5086639;28;20234;-51
2022/10/23 05:23:13;;;;;;;7.57;6.65;;;;;;;11.80;100.00;101185.59;5080785;28;20231;-54
2022/10/23 05:25:39;;;;;;;6.65;6.00;;;;;;;11.86;100.00;101181.25;5086411;28;20224;-53
2022/10/23 05:28:06;;;;;;;7.68;6.78;;;;;;;11.74;100.00;101181.19;5085545;28;20701;-52
2022/10/23 05:30:33;;;;;;;6.43;5.82;;;;;;;11.67;100.00;101180.31;5082941;28;20253;-54
2022/10/23 05:33:01;;;;;;;7.87;6.23;;;;;;;11.63;100.00;101188.22;5082912;28;20357;-51
2022/10/23 05:35:29;;;;;;;6.80;5.75;;;;;;;11.62;100.00;101176.81;5088931;28;20232;-51
2022/10/23 05:37:58;;;;;;;9.32;6.45;;;;;;;11.70;100.00;101195.22;5079297;28;20318;-52
2022/10/23 05:40:25;;;;;;;7.32;6.63;;;;;;;11.69;100.00;101188.22;5080639;28;20222;-53
2022/10/23 05:42:51;;;;;;;6.30;5.70;;;;;;;11.69;100.00;101193.50;5084866;28;20245;-52
2022/10/23 05:45:18;;;;;;;6.65;6.00;;;;;;;11.62;100.00;101183.84;5085215;28;20235;-52
2022/10/23 05:47:45;;;;;;;6.83;6.07;;;;;;;11.61;100.00;101196.06;5082219;28;20262;-52
2022/10/23 05:50:12;;;;;;;6.88;6.13;;;;;;;11.61;100.00;101197.84;5086010;28;20234;-54
2022/10/23 05:52:39;;;;;;;7.80;7.00;;;;;;;11.55;100.00;101201.34;5085314;28;20607;-52
2022/10/23 05:55:08;;;;;;;7.70;6.90;;;;;;;11.51;100.00;101196.06;5078712;28;20229;-52
2022/10/23 05:57:34;;;;;;;6.85;6.18;;;;;;;11.52;100.00;101206.59;5081842;28;20235;-52
2022/10/23 06:00:01;;;;;;;7.33;6.30;;;;;;;11.47;100.00;101198.66;5083309;28;20262;-52
2022/10/23 06:02:28;;;;;;;7.37;6.67;;;;;;;11.46;100.00;101194.28;5085627;28;21010;-53
2022/10/23 06:04:55;;;;;;;10.63;6.57;;;;;;;11.50;100.00;101191.69;5082089;28;20785;-53
2022/10/23 06:07:24;;;;;;;8.02;5.90;;;;;;;11.49;100.00;101189.94;5079511;28;20325;-53
2022/10/23 06:09:51;;;;;;;7.40;6.55;;;;;;;11.44;100.00;101182.91;5077921;28;20291;-53
2022/10/23 06:12:20;;;;;;;6.35;5.78;;;;;;;11.44;100.00;101182.00;5077572;28;20598;-51
2022/10/23 06:14:46;;;;;;;9.07;6.45;;;;;;;11.43;100.00;101186.38;5077201;28;20234;-55
2022/10/23 06:17:13;;;;;;;6.78;6.18;;;;;;;11.45;100.00;101189.91;5080952;28;20239;-52
2022/10/23 06:19:40;;;;;;;6.97;6.38;;;;;;;11.47;100.00;101185.53;5091070;27;20230;-51
2022/10/23 06:22:07;;;;;;;7.32;5.90;;;;;;;11.49;100.00;101184.66;5084484;28;20249;-52
2022/10/23 06:24:33;;;;;;;5.55;5.05;;;;;;;11.49;100.00;101184.66;5078328;28;20242;-53
2022/10/23 06:27:00;;;;;;;5.90;5.35;;;;;;;11.49;100.00;101179.41;5083238;28;20767;-52
2022/10/23 06:29:28;;;;;;;6.72;6.13;;;;;;;11.45;100.00;101184.66;5076656;28;20254;-52
2022/10/23 06:31:55;;;;;;;8.27;5.88;;;;;;;11.49;100.00;101179.41;5085923;28;20716;-52
2022/10/23 06:34:23;;;;;;;7.63;6.25;;;;;;;11.54;100.00;101177.66;5086109;28;20779;-54
2022/10/23 06:36:50;;;;;;;6.43;5.83;;;;;;;11.59;100.00;101181.19;5085564;28;20763;-51
2022/10/23 06:39:17;;;;;;;8.00;6.70;;;;;;;11.57;100.00;101177.66;5079499;28;20234;-52
2022/10/23 06:41:44;;;;;;;7.13;6.53;;;;;;;11.60;100.00;101182.94;5078638;28;20234;-52
2022/10/23 06:44:11;;;;;;;10.27;6.05;;;;;;;11.67;100.00;101180.31;5084862;28;20254;-53
2022/10/23 06:46:39;;;;;;;6.13;5.57;;;;;;;11.71;100.00;101187.31;5072574;28;20606;-51
2022/10/23 06:49:06;;;;;;;7.88;6.43;;;;;;;11.76;100.00;101195.25;5082768;28;20596;-53
2022/10/23 06:51:33;;;;;;;8.88;6.82;;;;;;;11.80;100.00;101197.00;5086505;28;20230;-53
2022/10/23 06:54:00;;;;;;;10.23;7.10;;;;;;;11.84;100.00;101198.78;5076960;28;20230;-52
2022/10/23 06:56:29;;;;;;;7.22;6.53;;;;;;;11.89;100.00;101206.69;5081981;28;20650;-51
2022/10/23 06:58:56;;;;;;;11.13;6.72;;;;;;;11.90;100.00;101208.47;5078157;28;20226;-52
2022/10/23 07:01:23;;;;;;;13.65;8.18;;;;;;;11.88;100.00;101208.44;5080892;28;20230;-53
2022/10/23 07:03:51;;;;;;;11.23;7.33;;;;;;;11.86;100.00;101201.41;5083692;28;20724;-53
2022/10/23 07:06:18;;;;;;;7.43;6.15;;;;;;;11.91;100.00;101200.56;5081464;28;20238;-52
2022/10/23 07:08:45;;;;;;;7.25;6.20;;;;;;;11.93;100.00;101193.56;5081112;28;20310;-53
2022/10/23 07:11:13;;;;;;;7.07;6.40;;;;;;;11.98;100.00;101197.94;5082309;28;20233;-53
2022/10/23 07:13:41;;;;;;;6.57;5.90;;;;;;;11.97;100.00;101201.41;5080489;28;20227;-52
2022/10/23 07:16:13;;;;;;;7.53;6.82;;;;;;;11.99;100.00;101208.44;5082622;28;20784;-53
2022/10/23 07:18:39;;;;;;;13.10;7.82;;;;;;;12.02;100.00;101204.94;5084033;28;20252;-52
2022/10/23 07:21:08;;;;;;;7.60;6.88;;;;;;;11.94;100.00;101204.94;5080392;28;20280;-52
2022/10/23 07:23:35;;;;;;;8.25;7.22;;;;;;;12.15;100.00;101204.09;5082184;28;20448;-51
2022/10/23 07:26:10;;;;;;;9.05;7.57;;;;;;;12.25;100.00;101202.31;5078442;28;20288;-52
2022/10/23 07:28:37;;;;;;;8.07;7.38;;;;;;;12.28;100.00;101203.19;5080532;28;20234;-52
2022/10/23 07:31:04;;;;;;;10.80;7.53;;;;;;;12.30;100.00;101208.47;5078741;28;20238;-52
2022/10/23 07:33:31;;;;;;;13.73;8.05;;;;;;;12.36;100.00;101209.34;5085305;28;20251;-52
2022/10/23 07:35:58;;;;;;;10.00;7.43;;;;;;;12.36;100.00;101203.19;5083716;28;20237;-54
2022/10/23 07:38:26;;;;;;;7.60;6.30;;;;;;;12.41;100.00;101206.69;5083473;28;20741;-51
2022/10/23 07:40:53;;;;;;;8.38;7.57;;;;;;;12.43;100.00;101211.97;5079090;28;20732;-51
2022/10/23 07:43:20;;;;;;;7.63;6.90;;;;;;;12.46;100.00;101204.03;5081824;28;20249;-53
2022/10/23 07:45:48;;;;;;;7.47;6.75;;;;;;;12.49;100.00;101198.78;5076635;28;20279;-53
2022/10/23 07:48:15;;;;;;;7.30;6.57;;;;;;;12.50;100.00;101205.81;5074636;28;20724;-52
2022/10/23 07:50:42;;;;;;;6.97;6.30;;;;;;;12.56;100.00;101209.28;5082563;28;20237;-50
2022/10/23 07:53:13;;;;;;;7.90;6.93;;;;;;;12.63;100.00;101204.91;5084908;28;20226;-51
2022/10/23 07:55:41;;;;;;;7.63;6.90;;;;;;;12.79;100.00;101204.00;5081302;28;20235;-52
2022/10/23 07:58:08;;;;;;;8.60;7.40;;;;;;;12.83;100.00;101200.47;5081614;28;20692;-52
2022/10/23 08:00:35;;;;;;;7.80;6.90;;;;;;;12.89;100.00;101202.22;5074093;28;20262;-53
2022/10/23 08:03:01;;;;;;;8.82;6.90;;;;;;;12.95;100.00;101196.03;5080585;28;20222;-53
2022/10/23 08:05:28;;;;;;;9.90;7.20;;;;;;;13.03;100.00;101197.78;5077935;28;20740;-53
2022/10/23 08:07:55;;;;;;;10.50;7.18;;;;;;;13.14;100.00;101195.97;5078103;28;20226;-52
2022/10/23 08:10:22;;;;;;;8.98;7.10;;;;;;;13.27;100.00;101202.09;5080527;28;20230;-53
2022/10/23 08:12:50;;;;;;;12.00;6.63;;;;;;;13.22;100.00;101202.97;5076697;28;20271;-52
2022/10/23 08:15:16;;;;;;;7.72;6.80;;;;;;;13.24;100.00;101193.34;5087104;28;20266;-52
2022/10/23 08:17:43;;;;;;;8.95;6.95;;;;;;;13.24;100.00;101199.47;5074792;28;20334;-52
2022/10/23 08:20:12;;;;;;;6.47;5.88;;;;;;;13.38;100.00;101185.34;5081712;28;20238;-52
2022/10/23 08:22:39;;;;;;;7.03;6.38;;;;;;;13.48;100.00;101187.94;5080965;28;20234;-53
2022/10/23 08:25:06;;;;;;;7.03;6.22;;;;;;;13.56;100.00;101187.88;5080218;28;20245;-51
2022/10/23 08:27:33;;;;;;;6.47;5.85;;;;;;;13.70;100.00;101193.94;5077277;28;20243;-55
2022/10/23 08:30:01;;;;;;;6.22;5.57;;;;;;;13.82;100.00;101196.50;5075966;28;20322;-53
2022/10/23 08:32:29;;;;;;;7.85;6.38;;;;;;;13.91;100.00;101199.97;5084318;28;20226;-52
2022/10/23 08:34:56;;;;;;;6.60;5.93;;;;;;;13.99;100.00;101198.13;5083439;28;20250;-51
2022/10/23 08:37:22;;;;;;;6.15;5.53;;;;;;;14.17;100.00;101199.75;5084580;28;20716;-50
2022/10/23 08:39:49;;;;;;;7.03;6.05;;;;;;;14.24;100.00;101197.03;5082529;28;20230;-51
2022/10/23 08:42:21;;;;;;;6.40;5.57;;;;;;;14.23;100.00;101192.66;5080853;28;20317;-52
2022/10/23 08:44:56;;;;;;;7.28;5.68;;;;;;;14.44;100.00;101191.59;5083768;28;20779;-51
2022/10/23 08:47:29;;;;;;;7.95;5.70;;;;;;;14.50;100.00;101195.97;5073283;28;20714;-53
2022/10/23 08:49:57;;;;;;;7.93;5.05;;;;;;;14.62;100.00;101198.50;5076184;28;20248;-52
2022/10/23 08:52:28;;;;;;;5.30;4.80;;;;;;;14.65;100.00;101193.19;5079356;28;20231;-52
2022/10/23 08:55:06;;;;;;;7.68;4.72;;;;;;;14.62;100.00;101198.50;5075835;28;20239;-52
2022/10/23 08:57:36;;;;;;;5.25;4.68;;;;;;;14.69;100.00;101192.25;5083977;28;20246;-52
2022/10/23 09:00:04;;;;;;;5.60;4.75;;;;;;;14.71;100.00;101192.25;5079155;28;20609;-53
2022/10/23 09:02:36;;;;;;;5.35;4.40;;;;;;;14.90;100.00;101190.25;5081180;28;20241;-52
2022/10/23 09:05:02;;;;;;;7.18;4.20;;;;;;;14.92;100.00;101194.66;5082360;28;20249;-52
2022/10/23 09:07:37;;;;;;;5.32;3.85;;;;;;;14.93;100.00;101190.22;5076684;28;20250;-54
2022/10/23 09:10:18;;;;;;;5.13;4.20;;;;;;;14.95;100.00;101188.44;5079442;28;20225;-52
2022/10/23 09:12:44;;;;;;;8.73;4.30;;;;;;;15.04;100.00;101188.34;5079034;28;20227;-51
2022/10/23 09:15:23;;;;;;;6.13;4.68;;;;;;;15.08;100.00;101184.75;5077632;28;20231;-53
2022/10/23 09:17:56;;;;;;;7.38;4.55;;;;;;;15.25;100.00;101188.06;5079808;28;20237;-52
2022/10/23 09:20:25;;;;;;;5.43;3.63;;;;;;;15.30;100.00;101173.88;5079130;28;20743;-52
2022/10/23 09:22:54;;;;;;;5.15;3.80;;;;;;;15.44;100.00;101178.13;5071599;28;20705;-52
2022/10/23 09:25:24;;;;;;;5.30;4.30;;;;;;;15.59;100.00;101170.84;5076784;28;20741;-51
2022/10/23 09:27:53;;;;;;;9.38;4.38;;;;;;;15.62;100.00;101178.72;5083547;28;20241;-54
2022/10/23 09:30:30;;;;;;;5.07;4.28;;;;;;;15.60;100.00;101173.47;5081211;28;20226;-53
2022/10/23 09:32:58;;;;;;;4.50;3.70;;;;;;;15.75;100.00;101173.25;5077768;28;20218;-51
2022/10/23 09:35:26;;;;;;;5.95;4.13;;;;;;;15.65;100.00;101171.63;5083680;28;20229;-53
2022/10/23 09:37:53;;;;;;;8.68;3.97;;;;;;;15.80;100.00;101177.63;5081972;28;20234;-51
2022/10/23 09:40:27;;;;;;;3.42;3.13;;;;;;;15.86;100.00;101181.03;5083974;28;20234;-53
2022/10/23 09:42:57;;;;;;;3.63;3.08;;;;;;;15.94;100.00;101178.28;5078353;28;20351;-52
2022/10/23 09:45:26;;;;;;;6.18;3.40;;;;;;;16.08;100.00;101181.59;5080985;28;20235;-52
2022/10/23 09:48:05;;;;;;;6.45;3.10;;;;;;;16.02;100.00;101179.03;5083378;28;20242;-52
2022/10/23 09:50:32;;;;;;;4.13;3.17;;;;;;;16.07;100.00;101177.16;5082791;28;20236;-52
2022/10/23 09:52:58;;;;;;;3.30;3.00;;;;;;;16.07;100.00;101173.66;5079515;28;20622;-50
2022/10/23 09:55:25;;;;;;;7.07;2.88;;;;;;;16.19;100.00;101174.31;5081992;28;21133;-51
2022/10/23 09:57:52;;;;;;;4.45;3.80;;;;;;;16.20;100.00;101176.06;5079103;28;20232;-53
2022/10/23 10:00:22;;;;;;;4.40;3.20;;;;;;;16.17;100.00;101173.47;5083830;28;20257;-51
2022/10/23 10:02:57;;;;;;;5.32;3.28;;;;;;;16.30;100.00;101175.91;5083060;28;20226;-54
2022/10/23 10:05:26;;;;;;;5.63;2.80;;;;;;;16.25;100.00;101175.09;5082194;28;20238;-53
2022/10/23 10:07:58;;;;;;;6.03;3.00;;;;;;;16.33;100.00;101167.91;5072071;28;20230;-51
2022/10/23 10:10:29;;;;;;;4.47;2.28;;;;;;;16.31;100.00;101167.06;5079364;28;21675;-51
2022/10/23 10:12:58;;;;;;;3.55;2.30;;;;;;;16.42;100.00;101170.38;5080067;28;20735;-51
2022/10/23 10:15:28;;;;;;;3.92;2.17;;;;;;;16.53;100.00;101172.84;5083640;28;20692;-52
2022/10/23 10:18:03;;;;;;;4.40;2.22;;;;;;;16.59;99.34;101165.66;5079106;28;20230;-51
2022/10/23 10:20:43;;;;;;;3.47;2.92;;;;;;;16.64;99.17;101158.50;5085226;28;20221;-53
2022/10/23 10:23:17;;;;;;;3.45;2.20;;;;;;;16.86;98.99;101152.81;5080059;28;20313;-51
2022/10/23 10:25:52;;;;;;;3.95;2.20;;;;;;;16.95;98.16;101160.56;5081418;28;20257;-52
2022/10/23 10:28:27;;;;;;;4.40;2.17;;;;;;;16.88;96.54;101148.31;5083077;28;20226;-52
2022/10/23 10:31:01;;;;;;;3.28;1.95;;;;;;;16.93;95.62;101149.13;5080060;28;20229;-51
2022/10/23 10:33:34;;;;;;;4.00;1.98;;;;;;;17.13;94.27;101138.97;5082371;28;20228;-51
2022/10/23 10:36:08;;;;;;;2.03;1.83;;;;;;;17.10;95.45;101140.81;5086180;28;20249;-51
2022/10/23 10:38:45;;;;;;;3.25;1.88;;;;;;;17.17;94.24;101140.63;5081678;28;20240;-52
2022/10/23 10:41:34;;;;;;;5.97;1.60;;;;;;;17.28;93.98;101137.75;5081809;28;20226;-52
2022/10/23 10:44:16;;;;;;;3.75;2.15;;;;;;;17.32;94.54;101135.91;5080545;28;20226;-52
2022/10/23 10:46:47;;;;;;;3.22;2.05;;;;;;;17.18;94.51;101133.53;5082406;28;20249;-55
2022/10/23 10:49:21;;;;;;;2.08;1.95;;;;;;;17.30;93.39;101137.69;5083436;28;20230;-53
2022/10/23 10:51:58;;;;;;;5.70;2.05;;;;;;;17.31;94.49;101142.13;5082143;28;20750;-51
2022/10/23 10:54:36;;;;;;;5.38;2.00;;;;;;;17.34;94.98;101134.06;5083298;28;20234;-52
2022/10/23 10:57:05;;;;;;;2.55;1.88;;;;;;;17.39;95.79;101129.53;5083865;28;25305;-53
2022/10/23 10:59:36;;;;;;;9.57;2.20;;;;;;;17.43;96.44;101133.88;5082629;28;20249;-51
2022/10/23 11:04:56;;;;;;;5.65;1.88;;;;;;;17.43;97.18;101117.94;5039827;28;20244;-53
2022/10/23 11:07:29;;;;;;;3.00;2.10;;;;;;;17.44;97.16;101117.03;5040051;28;20234;-53
2022/10/23 11:09:58;;;;;;;2.75;2.22;;;;;;;17.47;97.31;101111.66;5036124;28;20242;-53
2022/10/23 11:12:28;;;;;;;6.35;2.03;;;;;;;17.38;99.58;101109.22;5021540;28;20232;-53
2022/10/23 11:14:55;;;;;;;3.28;2.00;;;;;;;17.37;99.48;101104.81;5017885;28;20666;-53
2022/10/23 11:17:25;;;;;;;7.70;1.85;;;;;;;17.50;99.58;101094.78;5019684;28;20232;-52
2022/10/23 11:19:59;;;;;;;4.95;2.55;;;;;;;17.61;97.94;101096.25;5014268;28;20233;-53
2022/10/23 11:22:31;;;;;;;3.83;1.92;;;;;;;17.61;97.75;101093.59;5019433;28;20240;-53
2022/10/23 11:25:17;;;;;;;7.63;2.28;;;;;;;17.64;97.20;101087.34;5017263;28;20256;-53
2022/10/23 11:28:00;;;;;;;3.47;1.88;;;;;;;17.66;96.95;101082.88;5038503;28;20243;-53